»·PEaware :: N2102W KEMT-KOXR

N2102W :: KEMT-KOXR

FLIGHT INFORMATION

Flight Status: Arrived
Operator: Privately registered:
United States
More flights under this callsign
Pilot: Eric G. (5941)
Aircraft: Cessna 700 Citation Longitude
(C700)
More flights by this aircraft type
Origin: KEMT El Monte
United States
Destination: KOXR Oxnard
United States
More flights between these airports :: More routes between these airports
Route: PDZ V197 POM V264 ITSME V186 FIM
File this flight plan on PilotEdge
Remarks:
Altitude:
(Current/Filed)
8,000ft
Speed:
(Current/Filed)
325kts
Departed: 10-Sep-21 05:41 PM
Arrived: 10-Sep-21 06:10 PM
Distance/Time
Traveled:
59nm/0:29
Distance/Time
To Go:
Arrived

Flight Plot

Page will automatically refresh every two minutes.

Flight plan parsing failed; only flown route is shown


Map Options




Map Legend


Flown Route
Filed Route
Departure Airport
Arrival Airport
Navaid (VOR, NDB)
Fix

Horizontal Profiles

Position Reports

Time Latitude Longitude Heading Altitude Ground
Speed
10-Sep-21 17:15 34.088303 -118.032533 181 293ft 0kts
10-Sep-21 17:16 34.088303 -118.032533 181 293ft 0kts
10-Sep-21 17:17 34.088303 -118.032533 181 293ft 0kts
10-Sep-21 17:18 34.088303 -118.032533 181 293ft 0kts
10-Sep-21 17:19 34.088303 -118.032533 181 293ft 0kts
10-Sep-21 17:21 34.088303 -118.032533 181 293ft 0kts
10-Sep-21 17:22 34.088303 -118.032533 181 293ft 0kts
10-Sep-21 17:23 34.088303 -118.032533 181 293ft 0kts
10-Sep-21 17:24 34.088303 -118.032533 181 293ft 0kts
10-Sep-21 17:25 34.088303 -118.032533 181 293ft 0kts
10-Sep-21 17:26 34.088303 -118.032533 181 293ft 0kts
10-Sep-21 17:27 34.088303 -118.032533 181 293ft 0kts
10-Sep-21 17:28 34.088303 -118.032533 181 293ft 0kts
10-Sep-21 17:29 34.088303 -118.032533 181 293ft 0kts
10-Sep-21 17:30 34.088303 -118.032533 181 293ft 0kts
10-Sep-21 17:31 34.088303 -118.032533 181 293ft 0kts
10-Sep-21 17:32 34.088303 -118.032533 181 293ft 0kts
10-Sep-21 17:33 34.088303 -118.032533 181 293ft 0kts
10-Sep-21 17:34 34.088303 -118.032533 181 293ft 0kts
10-Sep-21 17:35 34.088303 -118.032533 181 293ft 0kts
10-Sep-21 17:36 34.088231 -118.032656 277 294ft 2kts
10-Sep-21 17:37 34.090679 -118.031628 338 297ft 0kts
10-Sep-21 17:38 34.090679 -118.031628 338 297ft 0kts
10-Sep-21 17:39 34.090710 -118.031648 329 297ft 4kts
10-Sep-21 17:39 34.090799 -118.032126 211 297ft 0kts
10-Sep-21 17:41 34.048368 -118.048816 159 2697ft 225kts
10-Sep-21 17:41 34.027767 -117.984364 107 3012ft 276kts
10-Sep-21 17:43 34.031020 -117.886337 85 3024ft 252kts
10-Sep-21 17:44 34.007967 -117.807762 113 3033ft 253kts
10-Sep-21 17:44 33.987074 -117.741500 110 3028ft 255kts
10-Sep-21 17:46 33.960073 -117.649944 110 3007ft 242kts
10-Sep-21 17:46 33.941699 -117.587470 109 3414ft 226kts
10-Sep-21 17:47 33.983339 -117.555840 330 5258ft 248kts
10-Sep-21 17:49 34.015936 -117.640195 271 7157ft 272kts
10-Sep-21 17:49 34.041900 -117.709327 315 7307ft 297kts
10-Sep-21 17:50 34.089080 -117.785859 264 8270ft 307kts
10-Sep-21 17:51 34.075989 -117.878282 264 8308ft 242kts
10-Sep-21 17:52 34.073303 -117.959030 267 8375ft 259kts
10-Sep-21 17:53 34.087404 -118.048952 290 8382ft 292kts
10-Sep-21 17:54 34.119092 -118.138649 290 8346ft 272kts
10-Sep-21 17:55 34.128759 -118.224245 273 7266ft 250kts
10-Sep-21 17:56 34.134268 -118.306869 272 6252ft 243kts
10-Sep-21 17:57 34.139848 -118.391986 272 6291ft 264kts
10-Sep-21 17:58 34.145626 -118.482541 272 6311ft 275kts
10-Sep-21 17:59 34.152741 -118.575432 276 6072ft 270kts
10-Sep-21 18:00 34.169151 -118.654748 285 4970ft 223kts
10-Sep-21 18:01 34.184863 -118.721409 281 4216ft 194kts
10-Sep-21 18:02 34.196671 -118.786082 277 4283ft 198kts
10-Sep-21 18:03 34.201194 -118.857088 272 4216ft 226kts
10-Sep-21 18:04 34.201382 -118.936971 266 4188ft 236kts
10-Sep-21 18:05 34.198785 -119.013395 269 3032ft 229kts
10-Sep-21 18:06 34.200038 -119.088372 273 1908ft 211kts
10-Sep-21 18:07 34.200437 -119.151206 265 820ft 146kts
10-Sep-21 18:08 34.200700 -119.192276 272 167ft 113kts
10-Sep-21 18:09 34.200243 -119.207245 147 46ft 4kts
10-Sep-21 18:10 34.200052 -119.207076 141 47ft 0kts
10-Sep-21 18:11 34.199024 -119.206329 286 43ft 4kts
10-Sep-21 18:12 34.199033 -119.206366 286 43ft 0kts

Navigation Log

Ident Type
Flight plan parsing failed, navigation log unavailable